KSHR/SHR METAR and TAF weather

Enter ICAO airport designator
Station Type Date Time Source
KSHR METAR 2020/01/20 21:53 UTC NOAA

KSHR 202153Z AUTO 31008KT 10SM CLR 02/M06 A3008 RMK AO2 SLP229 T00171056


Station Type Date Time Source
KSHR Decoded METAR 2020/01/20 21:53 UTC NOAA

SHERIDAN COUNTY AIRPORT, WY, United States (KSHR) 44-46N 106-58W 1202M
Jan 20, 2020 - 04:53 PM EST / 2020.01.20 2153 UTC
Wind: from the NW (310 degrees) at 9 MPH (8 KT):0
Visibility: 10 mile(s):0
Sky conditions: clear
Temperature: 35.1 F (1.7 C)
Dew Point: 21.9 F (-5.6 C)
Relative Humidity: 58%
Pressure (altimeter): 30.08 in. Hg (1018 hPa)
ob: KSHR 202153Z AUTO 31008KT 10SM CLR 02/M06 A3008 RMK AO2 SLP229 T00171056
cycle: 22

Station Type Date Time Source
KSHR TAF 2020/01/20 18:34 UTC NOAA

TAF KSHR 201732Z 2018/2118 VRB05KT P6SM SCT200
FM210300 VRB03KT P6SM SCT110 BKN180

Example: see airport list